createdAt,value
2022-11-18T00:04:52.611Z,27
2022-11-18T00:10:14.795Z,26.6
2022-11-18T00:15:52.393Z,26.4
2022-11-18T00:21:31.609Z,27.1
2022-11-18T00:27:12.232Z,28.5
2022-11-18T00:32:48.797Z,28.4
2022-11-18T00:38:25.904Z,27.8
2022-11-18T00:43:48.795Z,27.4
2022-11-18T00:49:26.385Z,27
2022-11-18T00:54:49.273Z,26.7
2022-11-18T01:00:26.944Z,26.7
2022-11-18T01:05:49.729Z,27.9
2022-11-18T01:11:12.411Z,28.6
2022-11-18T01:16:34.915Z,28
2022-11-18T01:21:56.743Z,27.6
2022-11-18T01:27:19.036Z,27.2
2022-11-18T01:33:33.541Z,26.9
2022-11-18T01:38:55.132Z,26.5
2022-11-18T01:44:32.937Z,27.1
2022-11-18T01:49:55.504Z,28.4
2022-11-18T01:55:07.208Z,28.2
2022-11-18T02:00:29.160Z,27.8
2022-11-18T02:06:08.994Z,27.3
2022-11-18T02:11:47.638Z,27
2022-11-18T02:17:25.865Z,26.6
2022-11-18T02:23:03.169Z,26.3
2022-11-18T02:28:40.192Z,27.4
2022-11-18T02:33:47.376Z,28.4
2022-11-18T02:39:08.871Z,28
2022-11-18T02:44:46.348Z,27.6
2022-11-18T02:50:24.719Z,27.2
2022-11-18T02:56:01.933Z,26.8
2022-11-18T03:01:39.956Z,26.3
2022-11-18T03:07:17.637Z,26.5
2022-11-18T03:12:39.887Z,28
2022-11-18T03:17:46.175Z,28.2
2022-11-18T03:23:08.726Z,27.8
2022-11-18T03:28:30.711Z,27.4
2022-11-18T03:33:37.860Z,27
2022-11-18T03:39:25.086Z,26.7
2022-11-18T03:45:08.566Z,26.2
2022-11-18T03:50:45.943Z,27.6
2022-11-18T03:56:11.606Z,28.4
2022-11-18T04:01:51.461Z,27.9
2022-11-18T04:07:28.852Z,27.6
2022-11-18T04:13:07.067Z,27.3
2022-11-18T04:18:44.523Z,26.9
2022-11-18T04:24:22.916Z,26.2
2022-11-18T04:29:45.687Z,27.5
2022-11-18T04:35:22.429Z,28.3
2022-11-18T04:40:51.757Z,28
2022-11-18T04:46:30.107Z,27.6
2022-11-18T04:52:12.871Z,27.3
2022-11-18T04:57:55.204Z,26.9
2022-11-18T05:03:33.645Z,26.1
2022-11-18T05:08:56.070Z,27.6
2022-11-18T05:14:18.388Z,28.3
2022-11-18T05:19:42.716Z,28
2022-11-18T05:25:08.303Z,27.6
2022-11-18T05:30:30.534Z,27.3
2022-11-18T05:36:11.759Z,27.1
2022-11-18T05:41:34.156Z,26.6
2022-11-18T05:47:13.474Z,26.3
2022-11-18T05:52:52.527Z,26
2022-11-18T05:58:30.575Z,25.6
2022-11-18T06:04:09.131Z,25.8
2022-11-18T06:09:48.200Z,27.4
2022-11-18T06:15:26.010Z,27.4
2022-11-18T06:21:06.936Z,27.1
2022-11-18T06:26:45.510Z,26.8
2022-11-18T06:32:29.292Z,26.4
2022-11-18T06:38:07.164Z,26.1
2022-11-18T06:43:52.105Z,25.8
2022-11-18T06:49:15.887Z,25.4
2022-11-18T06:54:43.695Z,25.3
2022-11-18T07:00:22.008Z,26.9
2022-11-18T07:05:59.605Z,27.1
2022-11-18T07:11:37.390Z,26.7
2022-11-18T07:17:19.975Z,26.3
2022-11-18T07:22:57.008Z,26
2022-11-18T07:28:35.304Z,25.8
2022-11-18T07:34:14.037Z,25.4
2022-11-18T07:39:55.963Z,25.1
2022-11-18T07:45:39.848Z,25
2022-11-18T07:51:20.421Z,26.6
2022-11-18T07:56:58.067Z,27.1
2022-11-18T08:02:37.134Z,26.8
2022-11-18T08:08:21.569Z,26.5
2022-11-18T08:14:03.216Z,26.3
2022-11-18T08:19:40.527Z,25.9
2022-11-18T08:25:23.161Z,25.6
2022-11-18T08:31:04.692Z,25.1
2022-11-18T08:36:47.580Z,25.1
2022-11-18T08:42:11.359Z,26.8
2022-11-18T08:47:35.200Z,27.1
2022-11-18T08:53:13.568Z,26.8
2022-11-18T08:58:51.378Z,26.5
2022-11-18T09:04:28.673Z,26.2
2022-11-18T09:10:12.496Z,25.9
2022-11-18T09:17:20.370Z,25.6
2022-11-18T09:23:25.097Z,25
2022-11-18T09:29:10.023Z,25.7
2022-11-18T09:34:48.386Z,27.1
2022-11-18T09:40:31.743Z,27
2022-11-18T09:46:14.958Z,26.7
2022-11-18T09:52:31.409Z,26.4
2022-11-18T09:58:12.970Z,26
2022-11-18T10:03:51.189Z,25.8
2022-11-18T10:09:29.385Z,25.4
2022-11-18T10:15:12.088Z,25.1
2022-11-18T10:21:15.435Z,24.8
2022-11-18T10:27:03.666Z,24.6
2022-11-18T10:32:26.076Z,24.3
2022-11-18T10:38:17.133Z,24.2
2022-11-18T10:43:55.851Z,25.1
2022-11-18T10:49:18.852Z,26.7
2022-11-18T10:55:03.907Z,26.6
2022-11-18T11:00:47.549Z,26.4
2022-11-18T11:06:27.748Z,26.1
2022-11-18T11:12:15.944Z,25.9
2022-11-18T11:17:55.183Z,25.6
2022-11-18T11:23:39.874Z,25.4
2022-11-18T11:31:04.239Z,25.1
2022-11-18T11:36:42.217Z,24.7
2022-11-18T11:42:25.234Z,24.4
2022-11-18T11:47:47.272Z,24.2
2022-11-18T11:53:33.856Z,24.4
2022-11-18T11:58:56.669Z,26.4
2022-11-18T12:04:41.251Z,26.7
2022-11-18T12:10:20.259Z,26.4
2022-11-18T12:16:03.381Z,26.2
2022-11-18T12:21:41.807Z,25.9
2022-11-18T12:27:19.978Z,25.6
2022-11-18T12:32:58.247Z,25.3
2022-11-18T12:38:35.844Z,25
2022-11-18T12:44:14.386Z,24.7
2022-11-18T12:49:53.005Z,24.4
2022-11-18T12:55:19.238Z,24.1
2022-11-18T13:00:42.486Z,24.1
2022-11-18T13:06:26.018Z,24.9
2022-11-18T13:12:05.422Z,26.6
2022-11-18T13:17:44.582Z,26.4
2022-11-18T13:23:06.320Z,26.1
2022-11-18T13:28:29.107Z,25.8
2022-11-18T13:34:06.353Z,25.6
2022-11-18T13:39:51.299Z,25.3
2022-11-18T13:45:17.704Z,24.9
2022-11-18T13:50:57.302Z,24.6
2022-11-18T13:56:19.541Z,24.3
2022-11-18T14:02:14.224Z,24.1
2022-11-18T14:07:21.333Z,23.9
2022-11-18T14:12:59.039Z,24.5
2022-11-18T14:18:38.663Z,26.4
2022-11-18T14:24:18.805Z,26.5
2022-11-18T14:29:56.979Z,26.3
2022-11-18T14:35:19.710Z,26
2022-11-18T14:42:01.168Z,25.8
2022-11-18T14:47:08.578Z,25.4
2022-11-18T14:52:47.060Z,25.2
2022-11-18T14:58:33.759Z,24.9
2022-11-18T15:04:18.482Z,24.6
2022-11-18T15:09:25.975Z,24.3
2022-11-18T15:14:48.931Z,24.1
2022-11-18T15:20:11.445Z,24.1
2022-11-18T15:25:49.112Z,25.2
2022-11-18T15:31:27.680Z,26.4
2022-11-18T15:37:10.393Z,26.4
2022-11-18T15:42:21.983Z,26.1
2022-11-18T15:48:08.415Z,25.9
2022-11-18T15:53:48.707Z,25.6
2022-11-18T15:59:21.052Z,25.4
2022-11-18T16:04:44.536Z,25.1
2022-11-18T16:10:09.466Z,24.8
2022-11-18T16:15:31.586Z,24.4
2022-11-18T16:21:11.521Z,24.3
2022-11-18T16:26:50.190Z,24.1
2022-11-18T16:32:35.267Z,23.8
2022-11-18T16:38:19.909Z,23.8
2022-11-18T16:44:04.549Z,25.5
2022-11-18T16:49:48.446Z,26.4
2022-11-18T16:55:18.239Z,26.3
2022-11-18T17:01:20.003Z,25.9
2022-11-18T17:07:00.802Z,25.7
2022-11-18T17:12:23.766Z,25.4
2022-11-18T17:17:50.729Z,25.3
2022-11-18T17:23:18.092Z,24.9
2022-11-18T17:28:43.388Z,24.7
2022-11-18T17:34:10.787Z,24.4
2022-11-18T17:39:37.958Z,24.2
2022-11-18T17:45:00.646Z,23.9
2022-11-18T17:50:30.668Z,23.8
2022-11-18T17:56:20.170Z,24.7
2022-11-18T18:01:59.703Z,26.3
2022-11-18T18:07:38.606Z,26.3
2022-11-18T18:12:52.301Z,26.1
2022-11-18T18:18:36.837Z,25.8
2022-11-18T18:24:16.804Z,25.6
2022-11-18T18:29:55.642Z,25.3
2022-11-18T18:35:40.138Z,25.1
2022-11-18T18:40:47.164Z,24.8
2022-11-18T18:45:59.292Z,24.5
2022-11-18T18:51:38.398Z,24.3
2022-11-18T18:57:23.480Z,23.8
2022-11-18T19:02:55.773Z,24.4
2022-11-18T19:09:47.045Z,26.2
2022-11-18T19:15:11.471Z,26.3
2022-11-18T19:20:20.573Z,26.1
2022-11-18T19:26:29.171Z,25.9
2022-11-18T19:32:13.250Z,25.7
2022-11-18T19:37:38.457Z,25.4
2022-11-18T19:43:18.601Z,25.2
2022-11-18T19:49:03.061Z,24.9
2022-11-18T19:54:49.287Z,24.6
2022-11-18T20:00:29.424Z,24.4
2022-11-18T20:06:09.533Z,24.1
2022-11-18T20:11:54.048Z,23.8
2022-11-18T20:17:34.674Z,25.8
2022-11-18T20:23:28.976Z,26.2
2022-11-18T20:28:57.114Z,26
2022-11-18T20:34:37.911Z,25.7
2022-11-18T20:40:02.035Z,25.5
2022-11-18T20:45:41.917Z,25.3
2022-11-18T20:50:52.073Z,24.9
2022-11-18T20:56:16.570Z,24.7
2022-11-18T21:01:08.905Z,24.4
2022-11-18T21:06:48.288Z,24.1
2022-11-18T21:12:27.515Z,23.8
2022-11-18T21:18:07.729Z,23.6
2022-11-18T21:23:47.553Z,23.6
2022-11-18T21:29:33.026Z,24.9
2022-11-18T21:35:15.769Z,26.3
2022-11-18T21:40:59.664Z,26.1
2022-11-18T21:47:09.346Z,25.8
2022-11-18T21:52:53.968Z,25.6
2022-11-18T21:58:20.642Z,25.3
2022-11-18T22:03:43.292Z,24.9
2022-11-18T22:09:21.680Z,24.7
2022-11-18T22:14:43.917Z,24.4
2022-11-18T22:20:27.791Z,24.1
2022-11-18T22:26:05.901Z,23.8
2022-11-18T22:31:46.469Z,23.5
2022-11-18T22:37:24.623Z,23.7
2022-11-18T22:43:02.701Z,25.1
2022-11-18T22:48:46.391Z,26.3
2022-11-18T23:02:44.795Z,25.8
2022-11-18T23:09:17.960Z,25.4
2022-11-18T23:15:02.404Z,25
2022-11-18T23:20:27.822Z,24.8
2022-11-18T23:25:52.276Z,24.4
2022-11-18T23:31:32.332Z,24.1
2022-11-18T23:37:12.031Z,23.8
2022-11-18T23:42:36.128Z,23.5
2022-11-18T23:47:58.851Z,23.3
2022-11-18T23:53:43.050Z,24
2022-11-18T23:59:25.057Z,26
